Time;durP1;ratioP1;P1;durP2;ratioP2;P2;SDS_P1;SDS_P2;PMS_P1;PMS_P2;Temp;Humidity;BMP_temperature;BMP_pressure;BME280_temperature;BME280_humidity;BME280_pressure;Samples;Min_cycle;Max_cycle;Signal;HPM_P1;HPM_P2
2022/07/11 00:00:18;;;;;;;2.72;1.85;;;26.90;39.60;;;;;;6137256;29;20031;-75
2022/07/11 00:03:19;;;;;;;1.98;1.50;;;26.90;39.60;;;;;;6142407;28;20082;-75
2022/07/11 00:06:20;;;;;;;2.63;1.48;;;26.90;39.70;;;;;;6133098;29;20047;-74
2022/07/11 00:09:21;;;;;;;4.13;1.85;;;26.90;39.60;;;;;;6140369;29;20031;-73
2022/07/11 00:12:26;;;;;;;1.83;1.40;;;26.80;39.60;;;;;;6144601;29;20039;-74
2022/07/11 00:15:27;;;;;;;2.08;1.50;;;26.70;39.70;;;;;;6140487;29;20134;-74
2022/07/11 00:18:28;;;;;;;8.18;1.58;;;26.60;39.90;;;;;;6138407;29;20037;-74
2022/07/11 00:21:29;;;;;;;4.00;1.40;;;26.50;40.10;;;;;;6147181;29;20106;-73
2022/07/11 00:24:30;;;;;;;3.35;1.70;;;26.40;40.30;;;;;;6144747;29;20074;-74
2022/07/11 00:27:31;;;;;;;3.97;1.90;;;26.30;40.50;;;;;;6131985;29;20034;-73
2022/07/11 00:30:32;;;;;;;1.52;1.40;;;26.40;40.60;;;;;;6145814;29;20035;-74
2022/07/11 00:33:33;;;;;;;5.93;1.88;;;26.40;40.50;;;;;;6136934;29;20038;-73
2022/07/11 00:36:35;;;;;;;1.63;1.50;;;26.40;40.50;;;;;;6141296;29;20028;-73
2022/07/11 00:39:36;;;;;;;3.92;1.58;;;26.30;40.60;;;;;;6138068;29;20039;-73
2022/07/11 00:42:38;;;;;;;1.67;1.50;;;26.30;40.70;;;;;;6143331;28;20035;-73
2022/07/11 00:45:39;;;;;;;3.83;1.88;;;26.20;40.70;;;;;;6137676;29;20035;-74
2022/07/11 00:48:39;;;;;;;1.90;1.45;;;26.20;40.80;;;;;;6140585;29;20035;-74
2022/07/11 00:51:41;;;;;;;2.33;1.60;;;26.00;40.80;;;;;;6134559;29;20031;-74
2022/07/11 00:54:45;;;;;;;2.65;1.92;;;26.00;41.00;;;;;;6146998;29;20118;-74
2022/07/11 00:57:46;;;;;;;2.15;1.45;;;25.90;41.10;;;;;;6144188;29;20046;-74
2022/07/11 01:00:48;;;;;;;4.00;1.55;;;25.90;41.20;;;;;;6141009;29;20034;-74
2022/07/11 01:03:49;;;;;;;2.00;1.65;;;25.80;41.30;;;;;;6140593;28;20032;-74
2022/07/11 01:06:51;;;;;;;8.25;1.70;;;25.70;41.40;;;;;;6141232;29;20034;-73
2022/07/11 01:09:52;;;;;;;2.40;1.80;;;25.70;41.60;;;;;;6139809;28;20126;-73
2022/07/11 01:12:54;;;;;;;2.50;1.60;;;25.60;41.90;;;;;;6146594;29;20405;-73
2022/07/11 01:16:12;;;;;;;2.42;1.80;;;25.60;42.20;;;;;;6152073;28;20066;-74
2022/07/11 01:19:13;;;;;;;2.63;1.67;;;25.60;42.20;;;;;;6144773;29;20495;-74
2022/07/11 01:22:15;;;;;;;4.30;1.55;;;25.60;42.10;;;;;;6133114;29;20103;-73
2022/07/11 01:25:32;;;;;;;5.78;1.63;;;25.60;42.10;;;;;;6137234;29;20114;-73
2022/07/11 01:28:33;;;;;;;8.13;1.80;;;25.50;42.10;;;;;;6135782;29;20058;-73
2022/07/11 01:31:37;;;;;;;2.13;1.73;;;25.40;42.20;;;;;;6129380;29;20031;-73
2022/07/11 01:34:38;;;;;;;1.42;1.30;;;25.40;42.30;;;;;;6145479;29;20034;-73
2022/07/11 01:37:39;;;;;;;3.17;1.52;;;25.50;42.40;;;;;;6132361;29;20035;-74
2022/07/11 01:40:40;;;;;;;2.35;1.70;;;25.50;42.30;;;;;;6147531;29;20035;-75
2022/07/11 01:43:42;;;;;;;2.60;2.00;;;25.50;42.10;;;;;;6146617;29;20028;-74
2022/07/11 01:46:43;;;;;;;5.35;1.83;;;25.50;42.20;;;;;;6143416;29;20539;-73
2022/07/11 01:49:44;;;;;;;3.30;2.00;;;25.40;42.30;;;;;;6146407;29;20457;-74
2022/07/11 01:52:45;;;;;;;2.78;1.80;;;25.40;42.40;;;;;;6144493;29;20027;-74
2022/07/11 01:55:46;;;;;;;3.63;1.73;;;25.30;42.40;;;;;;6127876;29;20063;-74
2022/07/11 01:58:48;;;;;;;3.90;1.92;;;25.30;42.90;;;;;;6145888;29;20356;-74
2022/07/11 02:01:49;;;;;;;2.78;1.90;;;25.30;43.20;;;;;;6137668;29;20086;-74
2022/07/11 02:04:50;;;;;;;1.75;1.50;;;25.40;43.20;;;;;;6135604;29;20031;-73
2022/07/11 02:11:10;;;;;;;3.63;1.42;;;25.40;43.00;;;;;;6146086;29;20441;-73
2022/07/11 02:14:11;;;;;;;7.25;1.98;;;25.40;42.90;;;;;;6129486;29;20047;-73
2022/07/11 02:17:12;;;;;;;4.05;1.75;;;25.40;42.90;;;;;;6134537;29;20035;-73
2022/07/11 02:20:13;;;;;;;4.60;1.90;;;25.40;42.80;;;;;;6140604;29;20123;-74
2022/07/11 02:23:15;;;;;;;2.20;1.35;;;25.40;42.90;;;;;;6150552;28;20031;-73
2022/07/11 02:26:16;;;;;;;2.60;1.70;;;25.30;42.90;;;;;;6148307;29;20609;-74
2022/07/11 02:29:22;;;;;;;2.38;1.58;;;25.30;43.00;;;;;;6131758;29;20046;-74
2022/07/11 02:32:23;;;;;;;4.05;1.67;;;25.30;43.10;;;;;;6134835;29;20058;-74
2022/07/11 02:35:24;;;;;;;1.77;1.58;;;25.20;43.20;;;;;;6145330;29;20114;-75
2022/07/11 02:38:26;;;;;;;3.15;1.70;;;25.20;43.40;;;;;;6147154;29;20039;-75
2022/07/11 02:41:29;;;;;;;3.97;2.35;;;25.20;43.60;;;;;;6130095;29;20063;-75
2022/07/11 02:44:30;;;;;;;2.97;1.58;;;25.10;43.60;;;;;;6152486;29;20302;-74
2022/07/11 02:47:31;;;;;;;3.45;1.92;;;25.10;43.90;;;;;;6125664;29;20074;-74
2022/07/11 02:50:32;;;;;;;2.63;1.70;;;25.10;44.20;;;;;;6127517;29;20023;-74
2022/07/11 02:53:33;;;;;;;3.63;1.83;;;25.00;44.30;;;;;;6130060;29;20036;-74
2022/07/11 02:56:34;;;;;;;3.10;1.92;;;25.00;44.50;;;;;;6150077;29;20392;-74
2022/07/11 02:59:35;;;;;;;1.50;1.40;;;24.90;44.70;;;;;;6128357;29;20027;-74
2022/07/11 03:02:37;;;;;;;7.35;1.77;;;24.90;44.90;;;;;;6145195;29;20019;-74
2022/07/11 03:05:38;;;;;;;1.42;1.33;;;24.80;45.10;;;;;;6144700;29;20158;-74
2022/07/11 03:08:39;;;;;;;2.40;1.77;;;24.80;45.30;;;;;;6128279;29;20338;-74
2022/07/11 03:11:40;;;;;;;2.85;1.73;;;24.70;45.30;;;;;;6144421;29;20189;-73
2022/07/11 03:14:42;;;;;;;7.50;1.80;;;24.70;45.40;;;;;;6147252;28;20046;-73
2022/07/11 03:17:43;;;;;;;2.00;1.63;;;24.70;45.40;;;;;;6138643;29;20035;-74
2022/07/11 03:20:44;;;;;;;2.83;1.60;;;24.70;45.30;;;;;;6132079;29;20063;-74
2022/07/11 03:23:45;;;;;;;2.40;1.77;;;24.60;45.10;;;;;;6127684;29;20126;-74
2022/07/11 03:26:46;;;;;;;1.50;1.40;;;24.60;45.00;;;;;;6148262;29;20054;-74
2022/07/11 03:29:48;;;;;;;8.15;1.98;;;24.60;44.90;;;;;;6147750;29;20376;-73
2022/07/11 03:32:48;;;;;;;3.22;1.98;;;24.60;44.80;;;;;;6139709;29;20039;-74
2022/07/11 03:35:50;;;;;;;2.75;1.77;;;24.50;44.70;;;;;;6147889;29;20019;-73
2022/07/11 03:38:50;;;;;;;5.15;1.70;;;24.60;44.80;;;;;;6149597;29;20035;-74
2022/07/11 03:41:53;;;;;;;4.55;1.77;;;24.60;44.80;;;;;;6117866;29;20408;-74
2022/07/11 03:44:54;;;;;;;5.97;1.70;;;24.60;44.90;;;;;;6115845;29;20460;-74
2022/07/11 03:47:55;;;;;;;10.13;2.10;;;24.60;45.00;;;;;;6131818;29;20023;-73
2022/07/11 03:50:57;;;;;;;1.98;1.52;;;24.60;45.20;;;;;;6145138;29;20048;-73
2022/07/11 03:53:58;;;;;;;4.20;1.88;;;24.50;45.30;;;;;;6139831;29;20042;-75
2022/07/11 03:56:59;;;;;;;2.08;1.63;;;24.50;45.50;;;;;;6145003;29;20031;-74
2022/07/11 04:00:03;;;;;;;6.18;2.05;;;24.40;45.70;;;;;;6142357;29;20035;-74
2022/07/11 04:03:05;;;;;;;6.38;2.10;;;24.40;45.90;;;;;;6145509;29;20039;-73
2022/07/11 04:06:08;;;;;;;4.82;1.73;;;24.40;45.90;;;;;;6137504;29;20028;-73
2022/07/11 04:09:10;;;;;;;2.28;1.85;;;24.30;45.80;;;;;;6142069;28;20113;-74
2022/07/11 04:12:11;;;;;;;4.65;2.08;;;24.30;45.90;;;;;;6124456;29;20031;-75
2022/07/11 04:15:12;;;;;;;8.50;2.00;;;24.30;46.20;;;;;;6145797;28;20432;-75
2022/07/11 04:18:13;;;;;;;3.92;1.92;;;24.30;46.10;;;;;;6131176;29;20399;-74
2022/07/11 04:21:14;;;;;;;3.85;1.60;;;24.30;46.10;;;;;;6143989;29;20026;-74
2022/07/11 04:24:15;;;;;;;3.70;1.60;;;24.30;46.00;;;;;;6127409;29;20038;-73
2022/07/11 04:27:16;;;;;;;7.93;1.88;;;24.30;45.90;;;;;;6128688;29;20039;-73
2022/07/11 04:30:17;;;;;;;1.98;1.77;;;24.30;46.00;;;;;;6120612;29;20039;-73
2022/07/11 04:33:18;;;;;;;3.45;2.08;;;24.30;46.20;;;;;;6133870;29;20039;-73
2022/07/11 04:36:19;;;;;;;4.95;2.42;;;24.30;46.30;;;;;;6129641;29;20035;-74
2022/07/11 04:39:20;;;;;;;3.08;2.00;;;24.30;46.50;;;;;;6130106;29;20043;-75
2022/07/11 04:42:22;;;;;;;5.25;2.42;;;24.30;46.50;;;;;;6129906;29;20031;-73
2022/07/11 04:45:23;;;;;;;3.92;2.30;;;24.30;46.60;;;;;;6158640;28;20031;-74
2022/07/11 04:48:24;;;;;;;2.97;2.42;;;24.30;46.80;;;;;;6133128;29;20106;-72
2022/07/11 04:51:26;;;;;;;3.58;1.90;;;24.30;46.90;;;;;;6133302;29;20094;-73
2022/07/11 04:54:27;;;;;;;3.33;2.10;;;24.30;46.90;;;;;;6150055;28;20023;-74
2022/07/11 04:57:28;;;;;;;3.90;2.30;;;24.20;46.90;;;;;;6144551;28;20058;-75
2022/07/11 05:00:29;;;;;;;2.72;1.92;;;24.30;47.10;;;;;;6135660;29;20448;-74
2022/07/11 05:03:32;;;;;;;3.90;2.30;;;24.20;47.00;;;;;;6152887;28;20027;-74
2022/07/11 05:06:33;;;;;;;8.57;2.22;;;24.30;47.10;;;;;;6135920;29;20030;-74
2022/07/11 05:09:34;;;;;;;3.33;2.20;;;24.30;47.20;;;;;;6136349;29;20039;-75
2022/07/11 05:12:35;;;;;;;3.30;2.33;;;24.30;47.10;;;;;;6137632;29;20114;-75
2022/07/11 05:15:38;;;;;;;7.95;2.28;;;24.30;47.20;;;;;;6146309;29;20144;-75
2022/07/11 05:18:39;;;;;;;4.20;2.30;;;24.30;47.20;;;;;;6171140;28;20059;-74
2022/07/11 05:21:40;;;;;;;6.20;2.28;;;24.30;47.20;;;;;;6157292;28;20027;-74
2022/07/11 05:24:41;;;;;;;9.45;2.20;;;24.30;47.30;;;;;;6146626;29;20027;-74
2022/07/11 05:27:42;;;;;;;2.88;1.98;;;24.30;47.20;;;;;;6171257;28;20404;-75
2022/07/11 05:30:43;;;;;;;5.63;2.10;;;24.30;47.10;;;;;;6138505;28;20050;-74
2022/07/11 05:33:45;;;;;;;6.05;1.83;;;24.40;46.90;;;;;;6147527;28;20039;-74
2022/07/11 05:36:47;;;;;;;2.72;1.55;;;24.40;46.30;;;;;;6141008;28;20079;-74
2022/07/11 05:39:48;;;;;;;3.90;1.88;;;24.40;45.40;;;;;;6155403;28;20089;-73
2022/07/11 05:42:49;;;;;;;2.10;1.70;;;24.30;45.20;;;;;;6136998;29;20047;-74
2022/07/11 05:45:50;;;;;;;9.13;2.20;;;24.30;45.30;;;;;;6139481;29;20028;-75
2022/07/11 05:48:51;;;;;;;2.70;1.95;;;24.40;45.40;;;;;;6138021;29;20058;-74
2022/07/11 05:51:52;;;;;;;4.25;1.90;;;24.40;45.40;;;;;;6149581;28;20504;-73
2022/07/11 05:54:54;;;;;;;3.58;2.00;;;24.50;45.40;;;;;;6148567;29;20030;-75
2022/07/11 05:57:55;;;;;;;2.15;1.63;;;24.50;45.30;;;;;;6142408;28;20028;-73
2022/07/11 06:00:58;;;;;;;2.40;1.75;;;24.60;44.70;;;;;;6138642;28;20043;-77
2022/07/11 06:04:00;;;;;;;4.18;1.90;;;24.60;44.00;;;;;;6141119;28;20031;-74
2022/07/11 06:07:01;;;;;;;5.63;1.73;;;24.70;43.80;;;;;;6142259;29;20031;-76
2022/07/11 06:10:02;;;;;;;3.05;1.70;;;24.70;43.60;;;;;;6145969;29;20046;-75
2022/07/11 06:13:04;;;;;;;4.35;1.30;;;24.70;43.20;;;;;;6165143;28;20453;-76
2022/07/11 06:16:06;;;;;;;2.42;1.58;;;24.90;42.90;;;;;;6143922;29;20059;-77
2022/07/11 06:19:07;;;;;;;6.45;1.92;;;24.90;42.40;;;;;;6150960;29;20504;-75
2022/07/11 06:22:08;;;;;;;4.05;1.88;;;25.00;42.10;;;;;;6151591;29;20369;-77
2022/07/11 06:25:10;;;;;;;2.42;1.48;;;25.10;41.90;;;;;;6148863;29;20119;-77
2022/07/11 06:28:11;;;;;;;5.55;1.70;;;25.10;41.70;;;;;;6150012;29;20075;-78
2022/07/11 06:31:12;;;;;;;3.97;1.67;;;25.10;41.60;;;;;;6142759;28;20075;-76
2022/07/11 06:34:14;;;;;;;7.40;1.70;;;25.20;41.60;;;;;;6147363;28;20102;-77
2022/07/11 06:37:14;;;;;;;5.47;1.70;;;25.30;41.70;;;;;;6144874;29;20086;-76
2022/07/11 06:40:17;;;;;;;4.88;1.88;;;25.30;41.60;;;;;;6145294;29;20480;-76
2022/07/11 06:43:18;;;;;;;5.97;1.80;;;25.40;41.50;;;;;;6142478;29;20461;-76
2022/07/11 06:46:19;;;;;;;3.80;1.50;;;25.50;41.40;;;;;;6156904;28;20038;-76
2022/07/11 06:49:21;;;;;;;3.95;2.08;;;25.60;41.20;;;;;;6137621;29;20046;-76
2022/07/11 06:52:23;;;;;;;2.30;1.40;;;25.70;41.10;;;;;;6144050;29;20074;-75
2022/07/11 06:55:24;;;;;;;15.15;2.60;;;25.70;40.90;;;;;;6142414;28;20449;-76
2022/07/11 06:58:31;;;;;;;5.72;1.52;;;25.80;40.80;;;;;;6143695;29;20038;-76
2022/07/11 07:01:35;;;;;;;10.52;1.50;;;25.80;40.30;;;;;;6156532;28;20035;-76
2022/07/11 07:04:36;;;;;;;4.53;1.40;;;25.90;40.20;;;;;;6140522;28;20361;-76
2022/07/11 07:07:37;;;;;;;4.18;1.50;;;26.00;40.10;;;;;;6142258;28;20039;-77
2022/07/11 07:10:38;;;;;;;3.40;1.33;;;26.00;39.90;;;;;;6141607;29;20027;-76
2022/07/11 07:13:39;;;;;;;3.95;1.35;;;26.10;39.80;;;;;;6139838;28;20042;-75
2022/07/11 07:16:40;;;;;;;8.35;1.45;;;26.20;39.70;;;;;;6129950;29;20088;-75
2022/07/11 07:19:42;;;;;;;6.05;1.40;;;26.30;39.40;;;;;;6100564;29;20093;-76
2022/07/11 07:22:43;;;;;;;14.18;1.58;;;26.30;39.00;;;;;;6145846;29;20031;-75
2022/07/11 07:25:44;;;;;;;7.72;1.38;;;26.40;38.90;;;;;;6137729;29;20028;-75
2022/07/11 07:28:46;;;;;;;12.90;2.08;;;26.50;38.70;;;;;;6127811;29;20034;-77
2022/07/11 07:31:49;;;;;;;7.65;1.70;;;26.50;38.40;;;;;;6130119;29;20020;-76
2022/07/11 07:34:50;;;;;;;13.35;1.35;;;26.60;38.40;;;;;;6117317;29;20031;-76
2022/07/11 07:37:51;;;;;;;6.82;1.27;;;26.70;38.20;;;;;;6131593;29;20031;-76
2022/07/11 07:40:52;;;;;;;8.82;1.67;;;26.80;38.00;;;;;;6130702;29;20042;-76
2022/07/11 07:43:53;;;;;;;3.63;1.55;;;26.90;37.60;;;;;;6116215;29;20114;-75
2022/07/11 07:46:54;;;;;;;6.00;1.38;;;26.90;37.50;;;;;;6113768;29;20034;-77
2022/07/11 07:49:56;;;;;;;3.15;1.50;;;27.00;37.40;;;;;;6145365;29;20019;-74
2022/07/11 07:52:57;;;;;;;5.35;1.25;;;27.10;37.20;;;;;;6127102;29;20031;-75
2022/07/11 07:55:58;;;;;;;13.57;1.83;;;27.20;37.20;;;;;;6128902;29;20740;-76
2022/07/11 07:58:59;;;;;;;4.10;1.23;;;27.30;36.90;;;;;;6130519;29;20035;-76
2022/07/11 08:02:00;;;;;;;9.82;1.25;;;27.40;36.70;;;;;;6148862;29;20023;-75
2022/07/11 08:05:02;;;;;;;5.50;1.20;;;27.50;36.80;;;;;;6129932;29;20045;-77
2022/07/11 08:08:04;;;;;;;14.98;1.40;;;27.70;36.80;;;;;;6147165;29;20027;-75
2022/07/11 08:11:05;;;;;;;3.30;1.25;;;27.80;36.40;;;;;;6130245;29;20051;-75
2022/07/11 08:14:10;;;;;;;4.85;2.38;;;27.90;36.30;;;;;;6130294;28;20051;-76
2022/07/11 08:17:11;;;;;;;5.55;1.67;;;27.90;36.20;;;;;;6131528;29;20043;-75
2022/07/11 08:20:12;;;;;;;3.95;1.50;;;28.00;36.00;;;;;;6145691;28;20035;-75
2022/07/11 08:23:13;;;;;;;4.07;1.38;;;28.10;35.90;;;;;;6125527;29;20137;-75
2022/07/11 08:26:15;;;;;;;5.40;1.67;;;28.20;35.70;;;;;;6132866;29;20086;-75
2022/07/11 08:29:16;;;;;;;5.38;1.35;;;28.30;35.50;;;;;;6148335;29;20109;-76
2022/07/11 08:32:18;;;;;;;7.30;2.40;;;28.40;35.40;;;;;;6131421;29;20023;-76
2022/07/11 08:35:19;;;;;;;12.50;3.22;;;28.50;35.30;;;;;;6144166;29;20024;-75
2022/07/11 08:38:20;;;;;;;6.45;1.30;;;28.60;35.10;;;;;;6129174;29;20397;-76
2022/07/11 08:41:22;;;;;;;7.70;1.10;;;28.70;34.80;;;;;;6131115;29;20059;-76
2022/07/11 08:44:24;;;;;;;3.15;1.23;;;28.80;34.60;;;;;;6129609;29;20034;-76
2022/07/11 08:47:26;;;;;;;8.55;1.63;;;28.80;34.60;;;;;;6129236;29;20028;-76
2022/07/11 08:50:30;;;;;;;5.13;1.42;;;29.00;34.60;;;;;;6129611;29;20411;-75
2022/07/11 08:53:33;;;;;;;4.20;1.42;;;29.10;34.40;;;;;;6133734;29;20106;-75
2022/07/11 08:56:36;;;;;;;8.52;2.63;;;29.20;34.30;;;;;;6147761;29;20020;-78
2022/07/11 08:59:41;;;;;;;10.30;1.30;;;29.30;34.00;;;;;;6147044;29;20031;-76
2022/07/11 09:02:44;;;;;;;3.33;1.42;;;29.30;33.90;;;;;;6148358;29;20058;-76
2022/07/11 09:05:46;;;;;;;8.13;1.40;;;29.40;33.90;;;;;;6137992;28;20368;-76
2022/07/11 09:08:47;;;;;;;9.73;3.00;;;29.50;33.70;;;;;;6129517;29;20032;-75
2022/07/11 09:11:54;;;;;;;4.72;2.38;;;29.60;33.60;;;;;;6131967;29;20480;-76
2022/07/11 09:14:56;;;;;;;2.60;2.20;;;29.70;33.30;;;;;;6115867;29;20051;-76
2022/07/11 09:17:57;;;;;;;3.63;2.00;;;29.70;33.00;;;;;;6141451;29;20042;-76
2022/07/11 09:28:07;;;;;;;1.80;1.50;;;29.70;32.80;;;;;;6126683;28;20054;-74
2022/07/11 09:31:18;;;;;;;7.45;2.60;;;29.80;32.60;;;;;;6142549;28;20063;-83
2022/07/11 09:34:21;;;;;;;7.70;1.38;;;29.80;32.60;;;;;;6120781;29;20031;-76
2022/07/11 09:37:43;;;;;;;4.93;2.10;;;29.90;32.60;;;;;;6133400;29;20360;-78
2022/07/11 09:40:46;;;;;;;2.40;2.05;;;29.90;32.60;;;;;;6137384;29;20044;-76
2022/07/11 09:43:50;;;;;;;7.38;2.30;;;30.00;32.50;;;;;;6125645;29;20048;-75
2022/07/11 09:46:52;;;;;;;8.43;2.28;;;30.10;32.40;;;;;;6133785;29;20094;-75
2022/07/11 09:49:54;;;;;;;5.25;2.13;;;30.20;32.30;;;;;;6144418;29;20027;-76
2022/07/11 09:53:10;;;;;;;8.35;2.30;;;30.10;32.30;;;;;;6140405;29;20028;-77
2022/07/11 09:56:14;;;;;;;5.90;1.73;;;30.20;32.60;;;;;;6133602;29;20483;-76
2022/07/11 09:59:16;;;;;;;5.70;2.10;;;30.20;32.50;;;;;;6131704;29;22206;-75
2022/07/11 10:02:17;;;;;;;6.45;2.10;;;30.30;32.30;;;;;;6146350;29;20135;-77
2022/07/11 10:05:20;;;;;;;6.28;2.05;;;30.20;32.40;;;;;;6124736;29;20023;-75
2022/07/11 10:08:21;;;;;;;7.20;2.47;;;30.30;32.50;;;;;;6118046;29;20113;-76
2022/07/11 10:11:23;;;;;;;4.53;2.33;;;30.40;32.40;;;;;;6116008;29;20055;-76
2022/07/11 10:14:24;;;;;;;5.63;2.53;;;30.50;32.30;;;;;;6148296;29;20110;-77
2022/07/11 10:17:34;;;;;;;3.33;1.85;;;30.60;32.20;;;;;;6112264;29;20031;-75
2022/07/11 10:20:41;;;;;;;4.70;1.85;;;30.60;32.10;;;;;;6129958;29;20055;-75
2022/07/11 10:23:56;;;;;;;6.72;1.90;;;30.60;32.10;;;;;;6147154;29;20150;-76
2022/07/11 10:27:04;;;;;;;7.45;1.65;;;30.60;32.00;;;;;;6145555;29;20031;-76
2022/07/11 10:30:05;;;;;;;9.93;2.15;;;30.70;32.20;;;;;;6121645;29;20114;-78
2022/07/11 10:33:08;;;;;;;9.00;1.70;;;30.70;32.10;;;;;;6122380;29;20039;-74
2022/07/11 10:36:26;;;;;;;5.25;2.10;;;30.80;32.10;;;;;;6135536;29;20062;-75
2022/07/11 10:39:27;;;;;;;7.70;1.67;;;30.80;32.10;;;;;;6112709;29;20031;-75
2022/07/11 10:42:42;;;;;;;5.40;2.00;;;30.90;32.00;;;;;;6123125;29;20126;-75
2022/07/11 10:45:59;;;;;;;6.20;2.17;;;30.90;32.10;;;;;;6126280;29;20818;-76
2022/07/11 10:49:15;;;;;;;4.30;2.38;;;31.00;32.10;;;;;;6148515;29;20035;-75
2022/07/11 10:52:23;;;;;;;5.57;2.92;;;31.00;32.10;;;;;;6137057;29;20478;-75
2022/07/11 10:55:32;;;;;;;7.85;2.20;;;31.00;32.00;;;;;;6144630;29;20029;-75
2022/07/11 10:58:42;;;;;;;28.35;12.20;;;31.00;31.90;;;;;;6128468;29;20214;-75
2022/07/11 11:02:05;;;;;;;32.45;13.90;;;31.10;31.70;;;;;;6132065;29;20203;-75
2022/07/11 11:05:07;;;;;;;3.40;1.88;;;31.20;31.70;;;;;;6124518;29;20078;-75
2022/07/11 11:11:37;;;;;;;119.55;51.28;;;31.90;31.10;;;;;;6144164;28;20490;-76
2022/07/11 11:14:38;;;;;;;69.75;33.95;;;32.90;30.00;;;;;;6142048;28;20055;-76
2022/07/11 11:17:39;;;;;;;49.25;22.58;;;33.90;29.10;;;;;;6146697;28;20031;-74
2022/07/11 11:20:40;;;;;;;30.40;14.43;;;34.70;28.20;;;;;;6149216;29;20027;-76
2022/07/11 11:24:01;;;;;;;14.40;8.73;;;35.40;27.60;;;;;;6130392;29;20460;-76
2022/07/11 11:27:02;;;;;;;11.07;4.35;;;36.00;27.10;;;;;;6115992;29;20456;-75
2022/07/11 11:30:06;;;;;;;5.53;2.08;;;36.50;26.60;;;;;;6143023;28;20743;-76
2022/07/11 11:33:16;;;;;;;5.55;3.58;;;36.70;26.40;;;;;;6133034;29;20038;-75
2022/07/11 11:36:20;;;;;;;4.38;2.33;;;36.90;26.10;;;;;;6133194;28;20043;-74
2022/07/11 11:39:35;;;;;;;7.35;1.83;;;37.10;26.00;;;;;;6116719;29;20345;-74
2022/07/11 11:42:36;;;;;;;5.13;1.90;;;37.10;25.90;;;;;;6114221;29;20031;-75
2022/07/11 11:45:48;;;;;;;4.15;1.88;;;37.20;25.90;;;;;;6130586;28;20448;-75
2022/07/11 11:48:49;;;;;;;2.67;1.67;;;37.20;25.80;;;;;;6131274;29;20429;-75
2022/07/11 11:51:53;;;;;;;1.95;1.30;;;37.30;25.80;;;;;;6131453;29;20046;-74
2022/07/11 11:54:57;;;;;;;4.55;1.42;;;37.30;25.70;;;;;;6127894;29;20534;-74
2022/07/11 11:57:58;;;;;;;2.50;1.60;;;37.20;25.70;;;;;;6132690;29;20412;-76
2022/07/11 12:00:59;;;;;;;4.18;1.50;;;37.20;25.70;;;;;;6145170;28;20098;-75
2022/07/11 12:04:10;;;;;;;3.22;1.38;;;37.20;25.90;;;;;;6118402;29;20190;-76
2022/07/11 12:07:11;;;;;;;2.90;1.48;;;37.30;25.80;;;;;;6115474;29;20039;-74
2022/07/11 12:10:14;;;;;;;4.28;1.40;;;37.20;25.80;;;;;;6148304;29;20114;-75
2022/07/11 12:13:19;;;;;;;2.30;1.40;;;37.20;25.90;;;;;;6131309;29;20035;-75
2022/07/11 12:19:41;;;;;;;3.92;1.20;;;37.20;25.90;;;;;;6146378;28;20039;-75
2022/07/11 12:22:43;;;;;;;6.47;1.50;;;37.40;25.80;;;;;;6122732;29;20027;-76
2022/07/11 12:25:45;;;;;;;2.90;1.40;;;37.40;25.70;;;;;;6143084;28;20031;-75
2022/07/11 12:29:22;;;;;;;1.42;1.20;;;37.30;25.70;;;;;;6134318;29;20118;-74
2022/07/11 12:32:23;;;;;;;3.80;1.30;;;37.20;25.80;;;;;;6128726;29;20043;-76
2022/07/11 12:35:24;;;;;;;3.22;1.27;;;37.20;25.80;;;;;;6131446;29;20023;-77
2022/07/11 12:38:26;;;;;;;4.53;1.50;;;37.20;25.80;;;;;;6121291;29;20035;-75
2022/07/11 12:41:30;;;;;;;8.77;1.50;;;37.20;25.80;;;;;;6128371;29;20457;-75
2022/07/11 12:47:53;;;;;;;2.05;1.33;;;37.20;25.70;;;;;;6117543;29;20118;-76
2022/07/11 12:50:54;;;;;;;5.18;1.45;;;37.20;25.60;;;;;;6129333;29;20035;-75
2022/07/11 12:54:02;;;;;;;5.15;1.40;;;37.30;25.60;;;;;;6129796;29;20039;-75
2022/07/11 12:57:04;;;;;;;1.67;1.20;;;37.40;25.40;;;;;;6127032;29;20044;-75
2022/07/11 13:00:16;;;;;;;2.58;1.20;;;37.70;25.20;;;;;;6128349;29;20039;-75
2022/07/11 13:03:31;;;;;;;4.30;1.60;;;37.80;25.20;;;;;;6108793;28;20042;-75
2022/07/11 13:10:00;;;;;;;2.85;1.27;;;38.30;24.70;;;;;;6122212;29;20412;-75
2022/07/11 13:13:01;;;;;;;3.25;1.17;;;38.50;24.40;;;;;;6137626;28;20050;-75
2022/07/11 13:16:04;;;;;;;1.92;1.75;;;38.60;24.30;;;;;;6147893;28;20051;-75
2022/07/11 13:19:05;;;;;;;1.63;1.33;;;38.90;24.10;;;;;;6121188;29;20452;-76
2022/07/11 13:22:06;;;;;;;2.95;1.40;;;39.10;23.80;;;;;;6138310;29;20128;-75
2022/07/11 13:25:10;;;;;;;2.80;1.40;;;39.30;23.70;;;;;;6147503;28;20027;-77
2022/07/11 13:28:11;;;;;;;3.63;1.13;;;39.50;23.40;;;;;;6130137;29;20039;-75
2022/07/11 13:31:12;;;;;;;6.15;1.50;;;39.70;23.20;;;;;;6142476;29;20028;-76
2022/07/11 13:34:15;;;;;;;2.30;1.20;;;39.90;23.00;;;;;;6136177;29;20049;-75
2022/07/11 13:37:16;;;;;;;2.78;1.20;;;40.10;22.90;;;;;;6142745;29;20024;-75
2022/07/11 13:40:20;;;;;;;4.25;1.40;;;40.40;22.50;;;;;;6129413;29;20106;-76
2022/07/11 13:43:21;;;;;;;6.47;1.20;;;40.60;22.50;;;;;;6147362;29;20677;-75
2022/07/11 13:46:22;;;;;;;3.85;1.33;;;41.20;22.20;;;;;;6130876;29;20424;-76
2022/07/11 13:49:25;;;;;;;2.35;1.20;;;41.60;21.80;;;;;;6132561;29;20046;-77
2022/07/11 13:52:26;;;;;;;6.45;1.30;;;41.90;21.50;;;;;;6147928;29;20042;-76
2022/07/11 13:55:31;;;;;;;4.78;1.42;;;42.00;21.30;;;;;;6151318;28;20031;-76
2022/07/11 13:58:32;;;;;;;2.33;1.20;;;42.20;21.10;;;;;;6137194;29;20373;-74
2022/07/11 14:01:33;;;;;;;1.88;1.30;;;42.40;21.00;;;;;;6120392;29;20028;-75
2022/07/11 14:04:34;;;;;;;3.80;1.20;;;42.70;20.70;;;;;;6131405;29;20488;-76
2022/07/11 14:07:37;;;;;;;2.60;1.30;;;43.00;20.50;;;;;;6117108;29;20035;-76
2022/07/11 14:10:39;;;;;;;1.48;1.00;;;43.30;20.30;;;;;;6149434;29;20027;-75
2022/07/11 14:13:40;;;;;;;1.80;1.40;;;43.50;20.20;;;;;;6133737;28;20039;-75
2022/07/11 14:16:42;;;;;;;4.65;1.30;;;43.60;19.90;;;;;;6150081;29;20036;-75
2022/07/11 14:19:43;;;;;;;1.50;1.23;;;43.90;19.80;;;;;;6140063;28;20031;-74
2022/07/11 14:22:44;;;;;;;3.63;1.20;;;44.20;19.60;;;;;;6153274;29;20038;-75
2022/07/11 14:25:46;;;;;;;4.57;1.08;;;44.20;19.40;;;;;;6115950;29;20110;-74
2022/07/11 14:28:48;;;;;;;5.00;1.30;;;43.90;19.50;;;;;;6130626;29;20023;-76
2022/07/11 14:31:53;;;;;;;4.00;1.15;;;43.70;19.60;;;;;;6150859;28;20027;-75
2022/07/11 14:34:54;;;;;;;1.48;1.30;;;43.60;19.80;;;;;;6129891;29;20039;-76
2022/07/11 14:37:55;;;;;;;5.13;1.25;;;43.80;19.60;;;;;;6132487;29;20626;-74
2022/07/11 14:40:57;;;;;;;2.40;1.20;;;44.10;19.50;;;;;;6144992;28;20038;-76
2022/07/11 14:43:58;;;;;;;2.05;1.50;;;44.20;19.30;;;;;;6129914;28;20059;-76
2022/07/11 14:46:59;;;;;;;2.35;1.15;;;44.30;19.30;;;;;;6147866;28;20494;-74
2022/07/11 14:50:00;;;;;;;3.90;1.58;;;44.30;19.30;;;;;;6129917;28;20030;-75
2022/07/11 14:53:01;;;;;;;2.58;1.33;;;44.20;19.30;;;;;;6148675;28;20094;-75
2022/07/11 14:56:03;;;;;;;2.40;1.40;;;44.00;19.30;;;;;;6127026;28;20070;-74
2022/07/11 14:59:04;;;;;;;2.15;1.25;;;43.70;19.40;;;;;;6145894;29;20099;-75
2022/07/11 15:02:06;;;;;;;12.75;1.40;;;43.60;19.70;;;;;;6128142;29;20035;-76
2022/07/11 15:05:07;;;;;;;2.03;1.38;;;43.50;19.70;;;;;;6144272;29;20538;-75
2022/07/11 15:14:48;;;;;;;1.88;1.10;;;43.00;20.40;;;;;;6129967;28;20461;-76
2022/07/11 15:17:50;;;;;;;1.77;1.38;;;42.80;20.10;;;;;;6147715;29;20027;-75
2022/07/11 15:20:51;;;;;;;2.20;1.15;;;42.60;20.30;;;;;;6148520;29;20134;-75
2022/07/11 15:23:52;;;;;;;1.60;1.10;;;42.30;20.40;;;;;;6144168;28;20372;-74
2022/07/11 15:26:53;;;;;;;2.67;1.20;;;42.20;20.60;;;;;;6130780;29;20024;-74
2022/07/11 15:29:54;;;;;;;3.17;1.02;;;42.20;20.70;;;;;;6147714;28;20027;-75
2022/07/11 15:32:55;;;;;;;1.88;1.02;;;42.20;20.60;;;;;;6145340;29;20130;-75
2022/07/11 15:35:57;;;;;;;0.93;0.90;;;42.20;20.60;;;;;;6145114;28;20067;-74
2022/07/11 15:38:59;;;;;;;1.70;1.15;;;42.10;20.60;;;;;;6132744;29;20023;-74
2022/07/11 15:42:00;;;;;;;3.17;1.30;;;42.00;20.60;;;;;;6132355;29;20023;-75
2022/07/11 15:45:01;;;;;;;2.42;1.13;;;42.00;20.70;;;;;;6146564;29;20035;-74
2022/07/11 15:48:02;;;;;;;1.33;1.00;;;42.20;20.60;;;;;;6147857;29;20027;-74
2022/07/11 15:51:04;;;;;;;1.70;1.08;;;42.40;20.50;;;;;;6152206;28;20031;-75
2022/07/11 15:54:05;;;;;;;4.82;1.27;;;42.50;20.40;;;;;;6148128;28;20503;-76
2022/07/11 15:57:07;;;;;;;2.45;0.93;;;42.70;20.20;;;;;;6149410;28;20476;-75
2022/07/11 16:00:11;;;;;;;1.88;1.08;;;42.60;20.20;;;;;;6144384;28;20092;-75
2022/07/11 16:03:16;;;;;;;2.88;1.30;;;42.50;20.20;;;;;;6147063;29;20129;-74
2022/07/11 16:06:17;;;;;;;1.50;1.20;;;42.50;20.30;;;;;;6166966;28;20034;-75
2022/07/11 16:09:18;;;;;;;3.55;1.52;;;42.50;20.20;;;;;;6151227;28;20032;-75
2022/07/11 16:12:19;;;;;;;2.63;1.00;;;42.40;20.20;;;;;;6147580;28;20046;-75
2022/07/11 16:15:20;;;;;;;1.40;1.20;;;42.50;20.20;;;;;;6146857;28;20059;-74
2022/07/11 16:18:21;;;;;;;1.20;1.05;;;42.50;20.10;;;;;;6147232;28;20159;-74